sensor_id;sensor_type;location;lat;lon;timestamp;pressure;altitude;pressure_sealevel;temperature;humidity
2268;BME280;11052;43.338;25.502;2023-12-29T00:02:17;101255.41;;;1.09;100.00
2268;BME280;11052;43.338;25.502;2023-12-29T00:04:44;101253.72;;;1.10;100.00
2268;BME280;11052;43.338;25.502;2023-12-29T00:07:11;101255.38;;;1.08;100.00
2268;BME280;11052;43.338;25.502;2023-12-29T00:09:38;101248.47;;;1.04;100.00
2268;BME280;11052;43.338;25.502;2023-12-29T00:12:07;101252.63;;;1.00;100.00
2268;BME280;11052;43.338;25.502;2023-12-29T00:14:36;101250.00;;;0.97;100.00
2268;BME280;11052;43.338;25.502;2023-12-29T00:17:04;101248.28;;;0.96;100.00
2268;BME280;11052;43.338;25.502;2023-12-29T00:19:32;101248.50;;;1.05;100.00
2268;BME280;11052;43.338;25.502;2023-12-29T00:21:59;101253.63;;;1.07;100.00
2268;BME280;11052;43.338;25.502;2023-12-29T00:24:28;101261.06;;;0.97;100.00
2268;BME280;11052;43.338;25.502;2023-12-29T00:26:57;101256.94;;;1.03;100.00
2268;BME280;11052;43.338;25.502;2023-12-29T00:29:24;101260.44;;;1.06;100.00
2268;BME280;11052;43.338;25.502;2023-12-29T00:31:53;101263.84;;;1.07;100.00
2268;BME280;11052;43.338;25.502;2023-12-29T00:34:20;101264.63;;;1.04;100.00
2268;BME280;11052;43.338;25.502;2023-12-29T00:36:48;101272.25;;;1.03;100.00
2268;BME280;11052;43.338;25.502;2023-12-29T00:39:15;101268.13;;;1.08;100.00
2268;BME280;11052;43.338;25.502;2023-12-29T00:41:43;101268.09;;;1.06;100.00
2268;BME280;11052;43.338;25.502;2023-12-29T00:44:10;101274.69;;;0.98;100.00
2268;BME280;11052;43.338;25.502;2023-12-29T00:46:36;101268.84;;;1.02;100.00
2268;BME280;11052;43.338;25.502;2023-12-29T00:49:04;101273.00;;;0.98;100.00
2268;BME280;11052;43.338;25.502;2023-12-29T00:51:31;101274.63;;;0.95;100.00
2268;BME280;11052;43.338;25.502;2023-12-29T00:53:59;101265.19;;;0.92;100.00
2268;BME280;11052;43.338;25.502;2023-12-29T00:56:26;101274.59;;;0.93;100.00
2268;BME280;11052;43.338;25.502;2023-12-29T00:58:53;101280.56;;;0.94;100.00
2268;BME280;11052;43.338;25.502;2023-12-29T01:01:20;101279.63;;;0.90;100.00
2268;BME280;11052;43.338;25.502;2023-12-29T01:03:47;101277.69;;;0.80;100.00
2268;BME280;11052;43.338;25.502;2023-12-29T01:06:14;101281.16;;;0.82;100.00
2268;BME280;11052;43.338;25.502;2023-12-29T01:08:41;101271.69;;;0.78;100.00
2268;BME280;11052;43.338;25.502;2023-12-29T01:11:10;101275.84;;;0.75;100.00
2268;BME280;11052;43.338;25.502;2023-12-29T01:13:37;101278.34;;;0.73;100.00
2268;BME280;11052;43.338;25.502;2023-12-29T01:16:04;101278.50;;;0.79;100.00
2268;BME280;11052;43.338;25.502;2023-12-29T01:18:32;101281.22;;;0.85;100.00
2268;BME280;11052;43.338;25.502;2023-12-29T01:20:59;101277.88;;;0.89;100.00
2268;BME280;11052;43.338;25.502;2023-12-29T01:23:26;101281.97;;;0.81;100.00
2268;BME280;11052;43.338;25.502;2023-12-29T01:25:53;101283.41;;;0.72;100.00
2268;BME280;11052;43.338;25.502;2023-12-29T01:28:22;101283.53;;;0.76;100.00
2268;BME280;11052;43.338;25.502;2023-12-29T01:30:49;101286.91;;;0.75;100.00
2268;BME280;11052;43.338;25.502;2023-12-29T01:33:16;101291.97;;;0.74;100.00
2268;BME280;11052;43.338;25.502;2023-12-29T01:35:44;101287.59;;;0.68;100.00
2268;BME280;11052;43.338;25.502;2023-12-29T01:38:11;101283.31;;;0.67;100.00
2268;BME280;11052;43.338;25.502;2023-12-29T01:40:44;101278.63;;;0.51;100.00
2268;BME280;11052;43.338;25.502;2023-12-29T01:43:11;101282.97;;;0.55;100.00
2268;BME280;11052;43.338;25.502;2023-12-29T01:45:40;101277.19;;;0.60;100.00
2268;BME280;11052;43.338;25.502;2023-12-29T01:48:08;101278.00;;;0.59;100.00
2268;BME280;11052;43.338;25.502;2023-12-29T01:50:36;101267.88;;;0.62;100.00
2268;BME280;11052;43.338;25.502;2023-12-29T01:53:03;101264.34;;;0.57;100.00
2268;BME280;11052;43.338;25.502;2023-12-29T01:55:32;101255.78;;;0.55;100.00
2268;BME280;11052;43.338;25.502;2023-12-29T01:58:00;101260.88;;;0.55;100.00
2268;BME280;11052;43.338;25.502;2023-12-29T02:00:28;101255.88;;;0.58;100.00
2268;BME280;11052;43.338;25.502;2023-12-29T02:02:56;101259.28;;;0.59;100.00
2268;BME280;11052;43.338;25.502;2023-12-29T02:05:24;101261.47;;;0.45;100.00
2268;BME280;11052;43.338;25.502;2023-12-29T02:07:53;101257.91;;;0.39;100.00
2268;BME280;11052;43.338;25.502;2023-12-29T02:10:20;101250.13;;;0.34;100.00
2268;BME280;11052;43.338;25.502;2023-12-29T02:12:48;101250.16;;;0.36;100.00
2268;BME280;11052;43.338;25.502;2023-12-29T02:15:15;101246.72;;;0.33;100.00
2268;BME280;11052;43.338;25.502;2023-12-29T02:17:46;101237.25;;;0.29;100.00
2268;BME280;11052;43.338;25.502;2023-12-29T02:20:16;101237.25;;;0.29;100.00
2268;BME280;11052;43.338;25.502;2023-12-29T02:22:43;101244.06;;;0.30;100.00
2268;BME280;11052;43.338;25.502;2023-12-29T02:25:12;101243.22;;;0.30;100.00
2268;BME280;11052;43.338;25.502;2023-12-29T02:27:45;101247.91;;;0.15;100.00
2268;BME280;11052;43.338;25.502;2023-12-29T02:30:20;101246.88;;;0.08;100.00
2268;BME280;11052;43.338;25.502;2023-12-29T02:32:50;101254.69;;;0.14;100.00
2268;BME280;11052;43.338;25.502;2023-12-29T02:35:23;101239.72;;;0.26;100.00
2268;BME280;11052;43.338;25.502;2023-12-29T02:37:51;101245.88;;;0.35;100.00
2268;BME280;11052;43.338;25.502;2023-12-29T02:40:20;101236.66;;;0.40;100.00
2268;BME280;11052;43.338;25.502;2023-12-29T02:42:47;101240.41;;;0.52;100.00
2268;BME280;11052;43.338;25.502;2023-12-29T02:45:15;101240.94;;;0.41;100.00
2268;BME280;11052;43.338;25.502;2023-12-29T02:47:42;101236.59;;;0.37;100.00
2268;BME280;11052;43.338;25.502;2023-12-29T02:50:10;101237.38;;;0.34;100.00
2268;BME280;11052;43.338;25.502;2023-12-29T02:52:37;101229.63;;;0.31;100.00
2268;BME280;11052;43.338;25.502;2023-12-29T02:55:04;101223.47;;;0.23;100.00
2268;BME280;11052;43.338;25.502;2023-12-29T02:57:33;101227.78;;;0.25;100.00
2268;BME280;11052;43.338;25.502;2023-12-29T03:00:00;101221.81;;;0.25;100.00
2268;BME280;11052;43.338;25.502;2023-12-29T03:02:27;101214.53;;;0.07;100.00
2268;BME280;11052;43.338;25.502;2023-12-29T03:04:54;101221.06;;;-0.04;100.00
2268;BME280;11052;43.338;25.502;2023-12-29T03:07:21;101221.09;;;-0.03;100.00
2268;BME280;11052;43.338;25.502;2023-12-29T03:09:48;101217.78;;;0.00;100.00
2268;BME280;11052;43.338;25.502;2023-12-29T03:12:15;101215.09;;;-0.05;100.00
2268;BME280;11052;43.338;25.502;2023-12-29T03:14:44;101214.06;;;-0.11;100.00
2268;BME280;11052;43.338;25.502;2023-12-29T03:17:12;101220.91;;;-0.10;100.00
2268;BME280;11052;43.338;25.502;2023-12-29T03:19:39;101215.72;;;-0.13;100.00
2268;BME280;11052;43.338;25.502;2023-12-29T03:22:06;101212.59;;;-0.03;100.00
2268;BME280;11052;43.338;25.502;2023-12-29T03:24:34;101220.50;;;0.08;100.00
2268;BME280;11052;43.338;25.502;2023-12-29T03:27:02;101223.09;;;0.09;100.00
2268;BME280;11052;43.338;25.502;2023-12-29T03:29:29;101215.31;;;0.05;100.00
2268;BME280;11052;43.338;25.502;2023-12-29T03:31:57;101211.97;;;0.06;100.00
2268;BME280;11052;43.338;25.502;2023-12-29T03:34:24;101211.09;;;0.05;100.00
2268;BME280;11052;43.338;25.502;2023-12-29T03:36:51;101204.47;;;0.12;100.00
2268;BME280;11052;43.338;25.502;2023-12-29T03:39:18;101197.66;;;0.11;100.00
2268;BME280;11052;43.338;25.502;2023-12-29T03:41:46;101201.31;;;0.20;100.00
2268;BME280;11052;43.338;25.502;2023-12-29T03:44:13;101202.09;;;0.18;100.00
2268;BME280;11052;43.338;25.502;2023-12-29T03:46:40;101202.91;;;0.17;100.00
2268;BME280;11052;43.338;25.502;2023-12-29T03:49:09;101203.03;;;-0.12;100.00
2268;BME280;11052;43.338;25.502;2023-12-29T03:51:37;101198.44;;;-0.23;100.00
2268;BME280;11052;43.338;25.502;2023-12-29T03:54:04;101198.56;;;-0.19;100.00
2268;BME280;11052;43.338;25.502;2023-12-29T03:56:31;101200.09;;;-0.25;100.00
2268;BME280;11052;43.338;25.502;2023-12-29T03:58:58;101196.53;;;-0.30;100.00
2268;BME280;11052;43.338;25.502;2023-12-29T04:01:25;101198.44;;;-0.23;100.00
2268;BME280;11052;43.338;25.502;2023-12-29T04:03:53;101203.00;;;-0.42;100.00
2268;BME280;11052;43.338;25.502;2023-12-29T04:06:21;101207.94;;;-0.48;100.00
2268;BME280;11052;43.338;25.502;2023-12-29T04:08:48;101201.19;;;-0.46;100.00
2268;BME280;11052;43.338;25.502;2023-12-29T04:11:15;101200.34;;;-0.46;100.00
2268;BME280;11052;43.338;25.502;2023-12-29T04:13:42;101206.50;;;-0.38;100.00
2268;BME280;11052;43.338;25.502;2023-12-29T04:16:09;101204.00;;;-0.37;100.00
2268;BME280;11052;43.338;25.502;2023-12-29T04:18:36;101200.78;;;-0.31;100.00
2268;BME280;11052;43.338;25.502;2023-12-29T04:21:04;101202.38;;;-0.35;100.00
2268;BME280;11052;43.338;25.502;2023-12-29T04:23:32;101195.78;;;-0.28;100.00
2268;BME280;11052;43.338;25.502;2023-12-29T04:25:58;101191.28;;;-0.37;100.00
2268;BME280;11052;43.338;25.502;2023-12-29T04:28:25;101190.53;;;-0.32;100.00
2268;BME280;11052;43.338;25.502;2023-12-29T04:30:52;101196.47;;;-0.34;100.00
2268;BME280;11052;43.338;25.502;2023-12-29T04:33:19;101192.81;;;-0.42;100.00
2268;BME280;11052;43.338;25.502;2023-12-29T04:35:46;101197.06;;;-0.42;100.00
2268;BME280;11052;43.338;25.502;2023-12-29T04:38:13;101196.09;;;-0.46;100.00
2268;BME280;11052;43.338;25.502;2023-12-29T04:40:44;101200.16;;;-0.52;100.00
2268;BME280;11052;43.338;25.502;2023-12-29T04:43:12;101202.56;;;-0.57;100.00
2268;BME280;11052;43.338;25.502;2023-12-29T04:45:39;101204.25;;;-0.57;100.00
2268;BME280;11052;43.338;25.502;2023-12-29T04:48:06;101196.88;;;-0.48;100.00
2268;BME280;11052;43.338;25.502;2023-12-29T04:50:33;101199.59;;;-0.42;100.00
2268;BME280;11052;43.338;25.502;2023-12-29T04:53:01;101199.47;;;-0.47;100.00
2268;BME280;11052;43.338;25.502;2023-12-29T04:55:28;101204.38;;;-0.53;100.00
2268;BME280;11052;43.338;25.502;2023-12-29T04:57:56;101210.78;;;-0.66;100.00
2268;BME280;11052;43.338;25.502;2023-12-29T05:00:23;101192.19;;;-0.63;100.00
2268;BME280;11052;43.338;25.502;2023-12-29T05:02:50;101199.19;;;-0.84;100.00
2268;BME280;11052;43.338;25.502;2023-12-29T05:05:17;101207.91;;;-1.05;100.00
2268;BME280;11052;43.338;25.502;2023-12-29T05:07:44;101203.34;;;-1.15;100.00
2268;BME280;11052;43.338;25.502;2023-12-29T05:10:11;101202.63;;;-1.11;100.00
2268;BME280;11052;43.338;25.502;2023-12-29T05:12:38;101204.59;;;-1.02;100.00
2268;BME280;11052;43.338;25.502;2023-12-29T05:15:08;101206.34;;;-1.01;100.00
2268;BME280;11052;43.338;25.502;2023-12-29T05:17:35;101202.09;;;-1.01;100.00
2268;BME280;11052;43.338;25.502;2023-12-29T05:20:03;101205.66;;;-0.95;100.00
2268;BME280;11052;43.338;25.502;2023-12-29T05:22:30;101202.53;;;-0.87;100.00
2268;BME280;11052;43.338;25.502;2023-12-29T05:24:57;101209.50;;;-0.80;100.00
2268;BME280;11052;43.338;25.502;2023-12-29T05:27:25;101209.56;;;-0.78;100.00
2268;BME280;11052;43.338;25.502;2023-12-29T05:29:52;101205.38;;;-0.76;100.00
2268;BME280;11052;43.338;25.502;2023-12-29T05:32:21;101209.75;;;-0.72;100.00
2268;BME280;11052;43.338;25.502;2023-12-29T05:34:48;101198.75;;;-0.71;100.00
2268;BME280;11052;43.338;25.502;2023-12-29T05:37:15;101196.00;;;-0.77;100.00
2268;BME280;11052;43.338;25.502;2023-12-29T05:39:42;101203.56;;;-0.80;100.00
2268;BME280;11052;43.338;25.502;2023-12-29T05:42:09;101200.09;;;-0.82;100.00
2268;BME280;11052;43.338;25.502;2023-12-29T05:44:37;101205.34;;;-0.78;100.00
2268;BME280;11052;43.338;25.502;2023-12-29T05:47:04;101201.19;;;-0.74;100.00
2268;BME280;11052;43.338;25.502;2023-12-29T05:49:33;101208.00;;;-0.73;100.00
2268;BME280;11052;43.338;25.502;2023-12-29T05:52:05;101200.28;;;-0.76;100.00
2268;BME280;11052;43.338;25.502;2023-12-29T05:54:32;101200.19;;;-0.79;100.00
2268;BME280;11052;43.338;25.502;2023-12-29T05:56:59;101205.25;;;-0.81;100.00
2268;BME280;11052;43.338;25.502;2023-12-29T05:59:26;101211.16;;;-0.82;100.00
2268;BME280;11052;43.338;25.502;2023-12-29T06:01:53;101205.34;;;-0.78;100.00
2268;BME280;11052;43.338;25.502;2023-12-29T06:04:21;101206.28;;;-0.74;100.00
2268;BME280;11052;43.338;25.502;2023-12-29T06:06:50;101208.06;;;-0.72;100.00
2268;BME280;11052;43.338;25.502;2023-12-29T06:09:17;101208.94;;;-0.71;100.00
2268;BME280;11052;43.338;25.502;2023-12-29T06:11:44;101217.44;;;-0.71;100.00
2268;BME280;11052;43.338;25.502;2023-12-29T06:14:12;101214.53;;;-0.54;100.00
2268;BME280;11052;43.338;25.502;2023-12-29T06:16:39;101222.63;;;-0.39;100.00
2268;BME280;11052;43.338;25.502;2023-12-29T06:19:06;101216.84;;;-0.34;100.00
2268;BME280;11052;43.338;25.502;2023-12-29T06:21:33;101223.00;;;-0.25;100.00
2268;BME280;11052;43.338;25.502;2023-12-29T06:24:02;101225.88;;;-0.15;100.00
2268;BME280;11052;43.338;25.502;2023-12-29T06:26:29;101222.72;;;-0.06;100.00
2268;BME280;11052;43.338;25.502;2023-12-29T06:28:56;101220.59;;;0.11;100.00
2268;BME280;11052;43.338;25.502;2023-12-29T06:31:23;101223.31;;;0.17;100.00
2268;BME280;11052;43.338;25.502;2023-12-29T06:33:50;101218.41;;;0.24;100.00
2268;BME280;11052;43.338;25.502;2023-12-29T06:36:17;101226.03;;;0.56;100.00
2268;BME280;11052;43.338;25.502;2023-12-29T06:38:44;101223.84;;;0.70;100.00
2268;BME280;11052;43.338;25.502;2023-12-29T06:41:15;101227.66;;;0.88;100.00
2268;BME280;11052;43.338;25.502;2023-12-29T06:43:42;101227.97;;;1.01;100.00
2268;BME280;11052;43.338;25.502;2023-12-29T06:46:09;101233.47;;;1.17;100.00
2268;BME280;11052;43.338;25.502;2023-12-29T06:48:38;101226.78;;;1.22;100.00
2268;BME280;11052;43.338;25.502;2023-12-29T06:51:05;101231.28;;;1.34;100.00
2268;BME280;11052;43.338;25.502;2023-12-29T06:53:32;101232.03;;;1.28;100.00
2268;BME280;11052;43.338;25.502;2023-12-29T06:55:59;101232.16;;;1.35;100.00
2268;BME280;11052;43.338;25.502;2023-12-29T06:58:27;101231.53;;;1.45;100.00
2268;BME280;11052;43.338;25.502;2023-12-29T07:00:54;101228.38;;;1.56;100.00
2268;BME280;11052;43.338;25.502;2023-12-29T07:03:21;101228.44;;;1.59;100.00
2268;BME280;11052;43.338;25.502;2023-12-29T07:05:49;101233.09;;;1.79;100.00
2268;BME280;11052;43.338;25.502;2023-12-29T07:08:16;101230.84;;;1.94;100.00
2268;BME280;11052;43.338;25.502;2023-12-29T07:10:45;101221.16;;;2.21;100.00
2268;BME280;11052;43.338;25.502;2023-12-29T07:13:15;101224.06;;;2.41;100.00
2268;BME280;11052;43.338;25.502;2023-12-29T07:15:44;101223.53;;;2.59;100.00
2268;BME280;11052;43.338;25.502;2023-12-29T07:18:11;101225.47;;;2.74;100.00
2268;BME280;11052;43.338;25.502;2023-12-29T07:20:38;101219.78;;;2.91;100.00
2268;BME280;11052;43.338;25.502;2023-12-29T07:23:05;101234.50;;;3.05;100.00
2268;BME280;11052;43.338;25.502;2023-12-29T07:25:32;101223.53;;;3.13;100.00
2268;BME280;11052;43.338;25.502;2023-12-29T07:27:59;101218.50;;;3.19;100.00
2268;BME280;11052;43.338;25.502;2023-12-29T07:30:26;101217.72;;;3.25;100.00
2268;BME280;11052;43.338;25.502;2023-12-29T07:32:55;101216.31;;;3.45;100.00
2268;BME280;11052;43.338;25.502;2023-12-29T07:35:22;101219.69;;;3.41;100.00
2268;BME280;11052;43.338;25.502;2023-12-29T07:37:49;101213.72;;;3.42;100.00
2268;BME280;11052;43.338;25.502;2023-12-29T07:40:16;101213.84;;;3.54;100.00
2268;BME280;11052;43.338;25.502;2023-12-29T07:42:44;101206.22;;;3.60;100.00
2268;BME280;11052;43.338;25.502;2023-12-29T07:45:15;101204.72;;;3.75;100.00
2268;BME280;11052;43.338;25.502;2023-12-29T07:47:43;101208.28;;;3.87;100.00
2268;BME280;11052;43.338;25.502;2023-12-29T07:50:11;101211.66;;;3.85;100.00
2268;BME280;11052;43.338;25.502;2023-12-29T07:52:38;101220.38;;;3.98;100.00
2268;BME280;11052;43.338;25.502;2023-12-29T07:55:06;101216.25;;;4.12;100.00
2268;BME280;11052;43.338;25.502;2023-12-29T07:57:33;101224.13;;;4.28;100.00
2268;BME280;11052;43.338;25.502;2023-12-29T08:00:01;101228.59;;;4.48;100.00
2268;BME280;11052;43.338;25.502;2023-12-29T08:02:31;101225.25;;;4.56;100.00
2268;BME280;11052;43.338;25.502;2023-12-29T08:04:58;101229.53;;;4.59;100.00
2268;BME280;11052;43.338;25.502;2023-12-29T08:07:27;101227.03;;;4.65;100.00
2268;BME280;11052;43.338;25.502;2023-12-29T08:09:54;101227.91;;;4.67;100.00
2268;BME280;11052;43.338;25.502;2023-12-29T08:12:21;101231.38;;;4.71;100.00
2268;BME280;11052;43.338;25.502;2023-12-29T08:14:48;101224.63;;;4.83;100.00
2268;BME280;11052;43.338;25.502;2023-12-29T08:17:15;101223.09;;;5.07;100.00
2268;BME280;11052;43.338;25.502;2023-12-29T08:19:42;101232.59;;;5.21;100.00
2268;BME280;11052;43.338;25.502;2023-12-29T08:22:09;101231.84;;;5.38;100.00
2268;BME280;11052;43.338;25.502;2023-12-29T08:24:41;101235.38;;;5.56;100.00
2268;BME280;11052;43.338;25.502;2023-12-29T08:27:11;101238.00;;;5.64;100.00
2268;BME280;11052;43.338;25.502;2023-12-29T08:29:39;101240.69;;;5.84;100.00
2268;BME280;11052;43.338;25.502;2023-12-29T08:32:07;101232.22;;;6.15;100.00
2268;BME280;11052;43.338;25.502;2023-12-29T08:34:34;101229.66;;;6.23;100.00
2268;BME280;11052;43.338;25.502;2023-12-29T08:37:03;101230.56;;;6.39;100.00
2268;BME280;11052;43.338;25.502;2023-12-29T08:39:30;101227.13;;;6.37;100.00
2268;BME280;11052;43.338;25.502;2023-12-29T08:41:59;101229.72;;;6.53;100.00
2268;BME280;11052;43.338;25.502;2023-12-29T08:44:26;101230.59;;;6.68;100.00
2268;BME280;11052;43.338;25.502;2023-12-29T08:46:53;101235.78;;;6.84;100.00
2268;BME280;11052;43.338;25.502;2023-12-29T08:49:20;101222.88;;;6.92;100.00
2268;BME280;11052;43.338;25.502;2023-12-29T08:51:48;101223.69;;;7.14;100.00
2268;BME280;11052;43.338;25.502;2023-12-29T08:54:15;101224.53;;;7.28;100.00
2268;BME280;11052;43.338;25.502;2023-12-29T08:56:42;101227.09;;;7.40;100.00
2268;BME280;11052;43.338;25.502;2023-12-29T08:59:11;101222.78;;;7.51;100.00
2268;BME280;11052;43.338;25.502;2023-12-29T09:01:38;101217.56;;;7.65;100.00
2268;BME280;11052;43.338;25.502;2023-12-29T09:04:05;101221.00;;;7.67;100.00
2268;BME280;11052;43.338;25.502;2023-12-29T09:06:32;101219.16;;;7.95;100.00
2268;BME280;11052;43.338;25.502;2023-12-29T09:08:59;101231.13;;;8.10;100.00
2268;BME280;11052;43.338;25.502;2023-12-29T09:11:26;101226.72;;;8.29;100.00
2268;BME280;11052;43.338;25.502;2023-12-29T09:13:53;101223.19;;;8.48;100.00
2268;BME280;11052;43.338;25.502;2023-12-29T09:16:21;101222.28;;;8.57;100.00
2268;BME280;11052;43.338;25.502;2023-12-29T09:18:48;101213.56;;;8.68;100.00
2268;BME280;11052;43.338;25.502;2023-12-29T09:21:15;101219.44;;;8.88;100.00
2268;BME280;11052;43.338;25.502;2023-12-29T09:23:42;101218.50;;;8.97;100.00
2268;BME280;11052;43.338;25.502;2023-12-29T09:26:11;101224.47;;;9.02;100.00
2268;BME280;11052;43.338;25.502;2023-12-29T09:28:41;101214.72;;;9.32;100.00
2268;BME280;11052;43.338;25.502;2023-12-29T09:31:08;101213.41;;;9.71;100.00
2268;BME280;11052;43.338;25.502;2023-12-29T09:33:37;101207.13;;;9.90;100.00
2268;BME280;11052;43.338;25.502;2023-12-29T09:36:05;101209.31;;;10.22;100.00
2268;BME280;11052;43.338;25.502;2023-12-29T09:38:33;101209.97;;;10.38;100.00
2268;BME280;11052;43.338;25.502;2023-12-29T09:41:04;101200.25;;;10.49;100.00
2268;BME280;11052;43.338;25.502;2023-12-29T09:43:36;101193.16;;;10.62;100.00
2268;BME280;11052;43.338;25.502;2023-12-29T09:46:05;101191.59;;;11.04;100.00
2268;BME280;11052;43.338;25.502;2023-12-29T09:48:34;101193.38;;;11.46;100.00
2268;BME280;11052;43.338;25.502;2023-12-29T09:51:05;101196.94;;;11.86;100.00
2268;BME280;11052;43.338;25.502;2023-12-29T09:53:35;101189.44;;;12.12;100.00
2268;BME280;11052;43.338;25.502;2023-12-29T09:56:03;101185.34;;;12.39;100.00
2268;BME280;11052;43.338;25.502;2023-12-29T09:58:32;101181.03;;;12.38;100.00
2268;BME280;11052;43.338;25.502;2023-12-29T10:01:03;101184.34;;;12.44;100.00
2268;BME280;11052;43.338;25.502;2023-12-29T10:03:32;101177.19;;;12.54;100.00
2268;BME280;11052;43.338;25.502;2023-12-29T10:06:00;101175.53;;;12.86;100.00
2268;BME280;11052;43.338;25.502;2023-12-29T10:08:33;101166.44;;;13.00;100.00
2268;BME280;11052;43.338;25.502;2023-12-29T10:11:02;101167.41;;;12.98;100.00
2268;BME280;11052;43.338;25.502;2023-12-29T10:13:30;101168.69;;;13.14;100.00
2268;BME280;11052;43.338;25.502;2023-12-29T10:16:08;101154.56;;;13.24;100.00
2268;BME280;11052;43.338;25.502;2023-12-29T10:18:45;101143.72;;;13.39;100.00
2268;BME280;11052;43.338;25.502;2023-12-29T10:21:20;101139.50;;;13.35;100.00
2268;BME280;11052;43.338;25.502;2023-12-29T10:23:56;101135.41;;;13.27;100.00
2268;BME280;11052;43.338;25.502;2023-12-29T10:26:27;101127.97;;;13.44;100.00
2268;BME280;11052;43.338;25.502;2023-12-29T10:28:54;101122.53;;;13.52;100.00
2268;BME280;11052;43.338;25.502;2023-12-29T10:31:23;101125.78;;;13.60;100.00
2268;BME280;11052;43.338;25.502;2023-12-29T10:33:51;101114.13;;;13.71;100.00
2268;BME280;11052;43.338;25.502;2023-12-29T10:36:18;101108.69;;;13.79;100.00
2268;BME280;11052;43.338;25.502;2023-12-29T10:38:45;101102.50;;;13.83;100.00
2268;BME280;11052;43.338;25.502;2023-12-29T10:41:17;101104.41;;;14.04;100.00
2268;BME280;11052;43.338;25.502;2023-12-29T10:43:46;101099.66;;;14.17;100.00
2268;BME280;11052;43.338;25.502;2023-12-29T10:46:17;101098.91;;;14.14;100.00
2268;BME280;11052;43.338;25.502;2023-12-29T10:48:45;101098.16;;;14.10;100.00
2268;BME280;11052;43.338;25.502;2023-12-29T10:51:12;101094.31;;;14.22;100.00
2268;BME280;11052;43.338;25.502;2023-12-29T10:53:39;101092.91;;;14.38;100.00
2268;BME280;11052;43.338;25.502;2023-12-29T10:56:18;101089.59;;;14.33;100.00
2268;BME280;11052;43.338;25.502;2023-12-29T10:58:57;101079.75;;;14.42;100.00
2268;BME280;11052;43.338;25.502;2023-12-29T11:01:24;101070.81;;;14.50;100.00
2268;BME280;11052;43.338;25.502;2023-12-29T11:03:57;101064.63;;;14.52;100.00
2268;BME280;11052;43.338;25.502;2023-12-29T11:06:26;101059.50;;;14.49;100.00
2268;BME280;11052;43.338;25.502;2023-12-29T11:08:54;101060.06;;;14.59;100.00
2268;BME280;11052;43.338;25.502;2023-12-29T11:11:23;101055.53;;;14.64;100.00
2268;BME280;11052;43.338;25.502;2023-12-29T11:13:51;101055.06;;;14.76;100.00
2268;BME280;11052;43.338;25.502;2023-12-29T11:16:20;101052.13;;;14.62;100.00
2268;BME280;11052;43.338;25.502;2023-12-29T11:18:49;101046.06;;;14.61;100.00
2268;BME280;11052;43.338;25.502;2023-12-29T11:21:19;101050.03;;;14.71;100.00
2268;BME280;11052;43.338;25.502;2023-12-29T11:23:48;101041.97;;;14.77;100.00
2268;BME280;11052;43.338;25.502;2023-12-29T11:26:15;101040.16;;;14.80;100.00
2268;BME280;11052;43.338;25.502;2023-12-29T11:28:46;101035.91;;;15.00;85.29
2268;BME280;11052;43.338;25.502;2023-12-29T11:31:14;101034.50;;;14.92;82.60
2268;BME280;11052;43.338;25.502;2023-12-29T11:33:45;101037.63;;;15.01;83.25
2268;BME280;11052;43.338;25.502;2023-12-29T11:36:17;101032.53;;;15.22;79.67
2268;BME280;11052;43.338;25.502;2023-12-29T11:38:54;101038.13;;;15.11;79.54
2268;BME280;11052;43.338;25.502;2023-12-29T11:41:26;101032.97;;;15.09;80.05
2268;BME280;11052;43.338;25.502;2023-12-29T11:43:59;101042.34;;;15.15;78.66
2268;BME280;11052;43.338;25.502;2023-12-29T11:46:33;101032.22;;;15.06;78.41
2268;BME280;11052;43.338;25.502;2023-12-29T11:49:01;101022.88;;;15.00;77.71
2268;BME280;11052;43.338;25.502;2023-12-29T11:51:34;101018.78;;;14.93;77.64
2268;BME280;11052;43.338;25.502;2023-12-29T11:54:02;101013.38;;;14.98;77.46
2268;BME280;11052;43.338;25.502;2023-12-29T11:56:37;101012.19;;;15.06;77.26
2268;BME280;11052;43.338;25.502;2023-12-29T11:59:17;101012.19;;;15.06;77.41
2268;BME280;11052;43.338;25.502;2023-12-29T12:01:46;101011.13;;;15.12;77.84
2268;BME280;11052;43.338;25.502;2023-12-29T12:04:38;101005.59;;;14.96;78.95
2268;BME280;11052;43.338;25.502;2023-12-29T12:07:13;101004.94;;;14.91;79.48
2268;BME280;11052;43.338;25.502;2023-12-29T12:09:40;100996.47;;;15.08;78.57
2268;BME280;11052;43.338;25.502;2023-12-29T12:12:07;100990.13;;;15.15;77.70
2268;BME280;11052;43.338;25.502;2023-12-29T12:14:48;100992.16;;;15.07;77.27
2268;BME280;11052;43.338;25.502;2023-12-29T12:17:29;100989.50;;;15.08;77.17
2268;BME280;11052;43.338;25.502;2023-12-29T12:19:57;100990.34;;;15.09;77.20
2268;BME280;11052;43.338;25.502;2023-12-29T12:22:25;100991.88;;;15.15;76.66
2268;BME280;11052;43.338;25.502;2023-12-29T12:24:56;100995.38;;;15.14;76.88
2268;BME280;11052;43.338;25.502;2023-12-29T12:27:24;100996.34;;;15.11;77.24
2268;BME280;11052;43.338;25.502;2023-12-29T12:29:54;100980.56;;;15.14;77.42
2268;BME280;11052;43.338;25.502;2023-12-29T12:32:24;100994.59;;;15.12;77.77
2268;BME280;11052;43.338;25.502;2023-12-29T12:34:52;100988.53;;;15.11;77.77
2268;BME280;11052;43.338;25.502;2023-12-29T12:37:20;100988.75;;;15.05;78.31
2268;BME280;11052;43.338;25.502;2023-12-29T12:39:46;100975.75;;;15.03;78.01
2268;BME280;11052;43.338;25.502;2023-12-29T12:42:13;100981.09;;;15.00;78.61
2268;BME280;11052;43.338;25.502;2023-12-29T12:44:42;100983.59;;;15.03;78.52
2268;BME280;11052;43.338;25.502;2023-12-29T12:47:18;100980.84;;;15.06;78.55
2268;BME280;11052;43.338;25.502;2023-12-29T12:49:49;100985.78;;;15.14;76.90
2268;BME280;11052;43.338;25.502;2023-12-29T12:52:18;100988.75;;;15.05;77.72